sensor_id;sensor_type;location;lat;lon;timestamp;temperature;humidity
5870;DHT22;2961;47.702;9.410;2022-12-29T00:02:26;0.60;99.90
5870;DHT22;2961;47.702;9.410;2022-12-29T00:04:52;0.60;99.90
5870;DHT22;2961;47.702;9.410;2022-12-29T00:07:20;0.70;99.90
5870;DHT22;2961;47.702;9.410;2022-12-29T00:09:47;0.70;99.90
5870;DHT22;2961;47.702;9.410;2022-12-29T00:12:14;0.60;99.90
5870;DHT22;2961;47.702;9.410;2022-12-29T00:14:41;0.60;99.90
5870;DHT22;2961;47.702;9.410;2022-12-29T00:17:25;0.70;99.90
5870;DHT22;2961;47.702;9.410;2022-12-29T00:19:52;0.70;99.90
5870;DHT22;2961;47.702;9.410;2022-12-29T00:22:38;0.90;99.90
5870;DHT22;2961;47.702;9.410;2022-12-29T00:25:22;0.90;99.90
5870;DHT22;2961;47.702;9.410;2022-12-29T00:28:08;1.00;99.90
5870;DHT22;2961;47.702;9.410;2022-12-29T00:30:52;1.00;99.90
5870;DHT22;2961;47.702;9.410;2022-12-29T00:33:37;0.90;99.90
5870;DHT22;2961;47.702;9.410;2022-12-29T00:36:23;1.00;99.90
5870;DHT22;2961;47.702;9.410;2022-12-29T00:38:56;1.00;99.90
5870;DHT22;2961;47.702;9.410;2022-12-29T00:41:41;1.00;99.90
5870;DHT22;2961;47.702;9.410;2022-12-29T00:44:25;1.00;99.90
5870;DHT22;2961;47.702;9.410;2022-12-29T00:46:52;0.90;99.90
5870;DHT22;2961;47.702;9.410;2022-12-29T00:49:19;0.90;99.90
5870;DHT22;2961;47.702;9.410;2022-12-29T00:52:00;1.10;99.90
5870;DHT22;2961;47.702;9.410;2022-12-29T00:54:30;1.30;99.90
5870;DHT22;2961;47.702;9.410;2022-12-29T00:56:57;1.30;99.90
5870;DHT22;2961;47.702;9.410;2022-12-29T00:59:24;1.30;99.90
5870;DHT22;2961;47.702;9.410;2022-12-29T01:01:51;1.30;99.90
5870;DHT22;2961;47.702;9.410;2022-12-29T01:04:19;1.30;99.90
5870;DHT22;2961;47.702;9.410;2022-12-29T01:06:46;1.30;99.90
5870;DHT22;2961;47.702;9.410;2022-12-29T01:09:13;1.20;99.90
5870;DHT22;2961;47.702;9.410;2022-12-29T01:12:05;1.20;99.90
5870;DHT22;2961;47.702;9.410;2022-12-29T01:14:33;1.10;99.90
5870;DHT22;2961;47.702;9.410;2022-12-29T01:17:00;1.40;99.90
5870;DHT22;2961;47.702;9.410;2022-12-29T01:19:26;1.40;99.90
5870;DHT22;2961;47.702;9.410;2022-12-29T01:21:53;1.40;99.90
5870;DHT22;2961;47.702;9.410;2022-12-29T01:24:20;1.40;99.90
5870;DHT22;2961;47.702;9.410;2022-12-29T01:26:48;1.40;99.90
5870;DHT22;2961;47.702;9.410;2022-12-29T01:29:16;1.30;99.90
5870;DHT22;2961;47.702;9.410;2022-12-29T01:31:43;1.40;99.90
5870;DHT22;2961;47.702;9.410;2022-12-29T01:34:09;1.50;99.90
5870;DHT22;2961;47.702;9.410;2022-12-29T01:36:36;1.60;99.90
5870;DHT22;2961;47.702;9.410;2022-12-29T01:39:03;1.50;99.90
5870;DHT22;2961;47.702;9.410;2022-12-29T01:41:30;1.50;99.90
5870;DHT22;2961;47.702;9.410;2022-12-29T01:43:58;1.50;99.90
5870;DHT22;2961;47.702;9.410;2022-12-29T01:46:31;1.60;99.90
5870;DHT22;2961;47.702;9.410;2022-12-29T01:49:03;1.60;99.90
5870;DHT22;2961;47.702;9.410;2022-12-29T01:51:31;1.70;99.90
5870;DHT22;2961;47.702;9.410;2022-12-29T01:54:01;1.60;99.90
5870;DHT22;2961;47.702;9.410;2022-12-29T01:56:29;1.60;99.90
5870;DHT22;2961;47.702;9.410;2022-12-29T01:59:02;1.50;99.90
5870;DHT22;2961;47.702;9.410;2022-12-29T02:01:33;1.50;99.90
5870;DHT22;2961;47.702;9.410;2022-12-29T02:04:00;1.50;99.90
5870;DHT22;2961;47.702;9.410;2022-12-29T02:06:31;1.50;99.90
5870;DHT22;2961;47.702;9.410;2022-12-29T02:09:00;1.50;99.90
5870;DHT22;2961;47.702;9.410;2022-12-29T02:11:27;1.50;99.90
5870;DHT22;2961;47.702;9.410;2022-12-29T02:13:55;1.50;99.90
5870;DHT22;2961;47.702;9.410;2022-12-29T02:16:31;1.50;99.90
5870;DHT22;2961;47.702;9.410;2022-12-29T02:19:21;1.60;99.90
5870;DHT22;2961;47.702;9.410;2022-12-29T02:22:05;1.70;99.90
5870;DHT22;2961;47.702;9.410;2022-12-29T02:28:04;1.70;99.90
5870;DHT22;2961;47.702;9.410;2022-12-29T02:30:48;1.80;99.90
5870;DHT22;2961;47.702;9.410;2022-12-29T02:33:27;1.90;99.90
5870;DHT22;2961;47.702;9.410;2022-12-29T02:36:01;1.90;99.90
5870;DHT22;2961;47.702;9.410;2022-12-29T02:38:45;1.90;99.90
5870;DHT22;2961;47.702;9.410;2022-12-29T02:41:21;2.00;99.90
5870;DHT22;2961;47.702;9.410;2022-12-29T02:43:54;2.10;99.90
5870;DHT22;2961;47.702;9.410;2022-12-29T02:46:28;2.10;99.90
5870;DHT22;2961;47.702;9.410;2022-12-29T02:49:03;2.10;99.90
5870;DHT22;2961;47.702;9.410;2022-12-29T02:51:34;2.10;99.90
5870;DHT22;2961;47.702;9.410;2022-12-29T02:54:02;2.20;99.90
5870;DHT22;2961;47.702;9.410;2022-12-29T02:56:47;2.10;99.90
5870;DHT22;2961;47.702;9.410;2022-12-29T02:59:14;2.20;99.90
5870;DHT22;2961;47.702;9.410;2022-12-29T03:01:58;2.10;99.90
5870;DHT22;2961;47.702;9.410;2022-12-29T03:04:54;2.20;99.90
5870;DHT22;2961;47.702;9.410;2022-12-29T03:07:32;2.30;99.90
5870;DHT22;2961;47.702;9.410;2022-12-29T03:10:07;2.30;99.90
5870;DHT22;2961;47.702;9.410;2022-12-29T03:12:42;2.40;99.90
5870;DHT22;2961;47.702;9.410;2022-12-29T03:15:34;2.40;99.90
5870;DHT22;2961;47.702;9.410;2022-12-29T03:18:25;2.50;99.90
5870;DHT22;2961;47.702;9.410;2022-12-29T03:21:00;2.70;99.90
5870;DHT22;2961;47.702;9.410;2022-12-29T03:23:29;2.90;99.90
5870;DHT22;2961;47.702;9.410;2022-12-29T03:26:00;3.40;99.90
5870;DHT22;2961;47.702;9.410;2022-12-29T03:28:31;4.00;99.90
5870;DHT22;2961;47.702;9.410;2022-12-29T03:31:00;4.50;99.90
5870;DHT22;2961;47.702;9.410;2022-12-29T03:33:32;4.80;99.90
5870;DHT22;2961;47.702;9.410;2022-12-29T03:36:02;5.20;99.90
5870;DHT22;2961;47.702;9.410;2022-12-29T03:38:35;5.50;99.90
5870;DHT22;2961;47.702;9.410;2022-12-29T03:41:09;5.80;99.90
5870;DHT22;2961;47.702;9.410;2022-12-29T03:43:37;6.10;99.90
5870;DHT22;2961;47.702;9.410;2022-12-29T03:46:04;6.40;99.90
5870;DHT22;2961;47.702;9.410;2022-12-29T03:48:33;6.60;99.90
5870;DHT22;2961;47.702;9.410;2022-12-29T03:50:59;6.90;99.90
5870;DHT22;2961;47.702;9.410;2022-12-29T03:53:26;7.10;99.90
5870;DHT22;2961;47.702;9.410;2022-12-29T03:55:53;7.30;99.90
5870;DHT22;2961;47.702;9.410;2022-12-29T03:58:20;7.50;99.90
5870;DHT22;2961;47.702;9.410;2022-12-29T04:00:47;7.50;99.90
5870;DHT22;2961;47.702;9.410;2022-12-29T04:03:13;7.40;99.90
5870;DHT22;2961;47.702;9.410;2022-12-29T04:05:41;7.50;99.90
5870;DHT22;2961;47.702;9.410;2022-12-29T04:08:08;7.60;99.90
5870;DHT22;2961;47.702;9.410;2022-12-29T04:10:35;7.60;99.90
5870;DHT22;2961;47.702;9.410;2022-12-29T04:13:02;7.60;99.90
5870;DHT22;2961;47.702;9.410;2022-12-29T04:15:28;7.70;99.90
5870;DHT22;2961;47.702;9.410;2022-12-29T04:17:55;7.80;99.90
5870;DHT22;2961;47.702;9.410;2022-12-29T04:20:22;7.80;99.90
5870;DHT22;2961;47.702;9.410;2022-12-29T04:23:07;7.80;99.90
5870;DHT22;2961;47.702;9.410;2022-12-29T04:25:34;7.80;99.90
5870;DHT22;2961;47.702;9.410;2022-12-29T04:28:01;7.80;99.90
5870;DHT22;2961;47.702;9.410;2022-12-29T04:30:28;7.90;99.90
5870;DHT22;2961;47.702;9.410;2022-12-29T04:32:55;7.80;99.90
5870;DHT22;2961;47.702;9.410;2022-12-29T04:35:22;8.00;99.90
5870;DHT22;2961;47.702;9.410;2022-12-29T04:37:48;8.10;99.90
5870;DHT22;2961;47.702;9.410;2022-12-29T04:40:16;8.10;99.90
5870;DHT22;2961;47.702;9.410;2022-12-29T04:42:43;8.00;99.90
5870;DHT22;2961;47.702;9.410;2022-12-29T04:45:10;7.90;99.90
5870;DHT22;2961;47.702;9.410;2022-12-29T04:47:37;7.80;99.90
5870;DHT22;2961;47.702;9.410;2022-12-29T04:50:05;7.80;99.90
5870;DHT22;2961;47.702;9.410;2022-12-29T04:52:32;7.80;99.90
5870;DHT22;2961;47.702;9.410;2022-12-29T04:54:58;7.90;99.90
5870;DHT22;2961;47.702;9.410;2022-12-29T04:57:27;7.90;99.90
5870;DHT22;2961;47.702;9.410;2022-12-29T04:59:53;7.90;99.90
5870;DHT22;2961;47.702;9.410;2022-12-29T05:02:20;7.90;99.90
5870;DHT22;2961;47.702;9.410;2022-12-29T05:04:47;7.90;99.90
5870;DHT22;2961;47.702;9.410;2022-12-29T05:07:14;7.90;99.90
5870;DHT22;2961;47.702;9.410;2022-12-29T05:09:41;7.80;99.90
5870;DHT22;2961;47.702;9.410;2022-12-29T05:12:08;7.80;99.90
5870;DHT22;2961;47.702;9.410;2022-12-29T05:14:36;7.70;99.90
5870;DHT22;2961;47.702;9.410;2022-12-29T05:17:03;7.80;99.90
5870;DHT22;2961;47.702;9.410;2022-12-29T05:19:29;7.80;99.90
5870;DHT22;2961;47.702;9.410;2022-12-29T05:21:57;7.70;99.90
5870;DHT22;2961;47.702;9.410;2022-12-29T05:24:23;7.80;99.90
5870;DHT22;2961;47.702;9.410;2022-12-29T05:26:50;7.60;99.90
5870;DHT22;2961;47.702;9.410;2022-12-29T05:29:17;7.40;99.90
5870;DHT22;2961;47.702;9.410;2022-12-29T05:31:45;7.20;99.90
5870;DHT22;2961;47.702;9.410;2022-12-29T05:34:12;7.00;99.90
5870;DHT22;2961;47.702;9.410;2022-12-29T05:36:39;6.70;99.90
5870;DHT22;2961;47.702;9.410;2022-12-29T05:39:06;6.60;99.90
5870;DHT22;2961;47.702;9.410;2022-12-29T05:41:33;6.30;99.90
5870;DHT22;2961;47.702;9.410;2022-12-29T05:44:00;6.20;99.90
5870;DHT22;2961;47.702;9.410;2022-12-29T05:46:27;6.00;99.90
5870;DHT22;2961;47.702;9.410;2022-12-29T05:48:55;5.80;99.90
5870;DHT22;2961;47.702;9.410;2022-12-29T05:51:22;5.50;99.90
5870;DHT22;2961;47.702;9.410;2022-12-29T05:53:49;5.30;99.90
5870;DHT22;2961;47.702;9.410;2022-12-29T05:56:16;5.10;99.90
5870;DHT22;2961;47.702;9.410;2022-12-29T05:58:42;5.00;99.90
5870;DHT22;2961;47.702;9.410;2022-12-29T06:01:09;4.90;99.90
5870;DHT22;2961;47.702;9.410;2022-12-29T06:03:36;4.80;99.90
5870;DHT22;2961;47.702;9.410;2022-12-29T06:06:05;4.90;99.90
5870;DHT22;2961;47.702;9.410;2022-12-29T06:08:32;4.80;99.90
5870;DHT22;2961;47.702;9.410;2022-12-29T06:10:59;4.80;99.90
5870;DHT22;2961;47.702;9.410;2022-12-29T06:13:26;4.60;99.90
5870;DHT22;2961;47.702;9.410;2022-12-29T06:15:54;4.50;99.90
5870;DHT22;2961;47.702;9.410;2022-12-29T06:18:21;4.40;99.90
5870;DHT22;2961;47.702;9.410;2022-12-29T06:20:47;4.30;99.90
5870;DHT22;2961;47.702;9.410;2022-12-29T06:23:16;4.30;99.90
5870;DHT22;2961;47.702;9.410;2022-12-29T06:25:43;4.30;99.90
5870;DHT22;2961;47.702;9.410;2022-12-29T06:28:10;4.30;99.90
5870;DHT22;2961;47.702;9.410;2022-12-29T06:30:37;4.50;99.90
5870;DHT22;2961;47.702;9.410;2022-12-29T06:33:04;4.60;99.90
5870;DHT22;2961;47.702;9.410;2022-12-29T06:35:33;4.70;99.90
5870;DHT22;2961;47.702;9.410;2022-12-29T06:38:00;4.80;99.90
5870;DHT22;2961;47.702;9.410;2022-12-29T06:40:28;4.80;99.90
5870;DHT22;2961;47.702;9.410;2022-12-29T06:42:54;4.90;99.90
5870;DHT22;2961;47.702;9.410;2022-12-29T06:45:21;5.00;99.90
5870;DHT22;2961;47.702;9.410;2022-12-29T06:47:48;5.10;99.90
5870;DHT22;2961;47.702;9.410;2022-12-29T06:50:15;5.20;99.90
5870;DHT22;2961;47.702;9.410;2022-12-29T06:52:42;5.30;99.90
5870;DHT22;2961;47.702;9.410;2022-12-29T06:55:08;5.60;99.90
5870;DHT22;2961;47.702;9.410;2022-12-29T06:57:36;6.00;99.90
5870;DHT22;2961;47.702;9.410;2022-12-29T07:00:04;6.40;99.90
5870;DHT22;2961;47.702;9.410;2022-12-29T07:02:31;6.80;99.90
5870;DHT22;2961;47.702;9.410;2022-12-29T07:04:58;7.20;99.90
5870;DHT22;2961;47.702;9.410;2022-12-29T07:07:24;7.50;99.90
5870;DHT22;2961;47.702;9.410;2022-12-29T07:09:51;7.80;99.90
5870;DHT22;2961;47.702;9.410;2022-12-29T07:12:18;8.00;99.90
5870;DHT22;2961;47.702;9.410;2022-12-29T07:14:46;8.10;99.90
5870;DHT22;2961;47.702;9.410;2022-12-29T07:17:13;8.00;99.90
5870;DHT22;2961;47.702;9.410;2022-12-29T07:19:39;7.90;99.90
5870;DHT22;2961;47.702;9.410;2022-12-29T07:22:06;7.90;99.90
5870;DHT22;2961;47.702;9.410;2022-12-29T07:24:33;7.90;99.90
5870;DHT22;2961;47.702;9.410;2022-12-29T07:27:00;7.80;99.90
5870;DHT22;2961;47.702;9.410;2022-12-29T07:29:26;7.70;99.90
5870;DHT22;2961;47.702;9.410;2022-12-29T07:31:54;7.70;99.90
5870;DHT22;2961;47.702;9.410;2022-12-29T07:34:21;7.70;99.90
5870;DHT22;2961;47.702;9.410;2022-12-29T07:36:48;7.90;99.90
5870;DHT22;2961;47.702;9.410;2022-12-29T07:39:15;7.90;99.90
5870;DHT22;2961;47.702;9.410;2022-12-29T07:41:42;7.80;99.90
5870;DHT22;2961;47.702;9.410;2022-12-29T07:44:08;8.00;99.90
5870;DHT22;2961;47.702;9.410;2022-12-29T07:46:35;8.00;99.90
5870;DHT22;2961;47.702;9.410;2022-12-29T07:49:03;7.90;99.90
5870;DHT22;2961;47.702;9.410;2022-12-29T07:51:30;7.90;99.90
5870;DHT22;2961;47.702;9.410;2022-12-29T07:53:57;7.90;99.90
5870;DHT22;2961;47.702;9.410;2022-12-29T07:56:26;8.00;99.90
5870;DHT22;2961;47.702;9.410;2022-12-29T07:58:52;8.00;99.90
5870;DHT22;2961;47.702;9.410;2022-12-29T08:01:19;8.10;99.90
5870;DHT22;2961;47.702;9.410;2022-12-29T08:03:46;8.10;99.90
5870;DHT22;2961;47.702;9.410;2022-12-29T08:06:15;8.10;99.90
5870;DHT22;2961;47.702;9.410;2022-12-29T08:08:42;8.10;99.90
5870;DHT22;2961;47.702;9.410;2022-12-29T08:11:08;8.00;99.90
5870;DHT22;2961;47.702;9.410;2022-12-29T08:13:35;8.00;99.90
5870;DHT22;2961;47.702;9.410;2022-12-29T08:16:02;7.90;99.90
5870;DHT22;2961;47.702;9.410;2022-12-29T08:18:29;7.70;99.90
5870;DHT22;2961;47.702;9.410;2022-12-29T08:20:55;7.60;99.90
5870;DHT22;2961;47.702;9.410;2022-12-29T08:23:28;7.50;99.90
5870;DHT22;2961;47.702;9.410;2022-12-29T08:25:57;7.40;99.90
5870;DHT22;2961;47.702;9.410;2022-12-29T08:28:24;7.30;99.90
5870;DHT22;2961;47.702;9.410;2022-12-29T08:30:51;7.20;99.90
5870;DHT22;2961;47.702;9.410;2022-12-29T08:33:17;7.10;99.90
5870;DHT22;2961;47.702;9.410;2022-12-29T08:35:45;7.20;99.90
5870;DHT22;2961;47.702;9.410;2022-12-29T08:38:11;7.10;99.90
5870;DHT22;2961;47.702;9.410;2022-12-29T08:40:40;7.10;99.90
5870;DHT22;2961;47.702;9.410;2022-12-29T08:43:06;7.10;99.90
5870;DHT22;2961;47.702;9.410;2022-12-29T08:45:33;7.20;99.90
5870;DHT22;2961;47.702;9.410;2022-12-29T08:48:00;7.20;99.90
5870;DHT22;2961;47.702;9.410;2022-12-29T08:50:27;7.30;99.90
5870;DHT22;2961;47.702;9.410;2022-12-29T08:52:53;7.40;99.90
5870;DHT22;2961;47.702;9.410;2022-12-29T08:55:20;7.50;99.90
5870;DHT22;2961;47.702;9.410;2022-12-29T08:57:48;7.60;99.90
5870;DHT22;2961;47.702;9.410;2022-12-29T09:00:15;7.70;99.90
5870;DHT22;2961;47.702;9.410;2022-12-29T09:02:42;7.80;99.90
5870;DHT22;2961;47.702;9.410;2022-12-29T09:05:09;7.80;99.90
5870;DHT22;2961;47.702;9.410;2022-12-29T09:07:36;7.80;99.90
5870;DHT22;2961;47.702;9.410;2022-12-29T09:10:04;7.90;99.90
5870;DHT22;2961;47.702;9.410;2022-12-29T09:12:30;7.90;99.90
5870;DHT22;2961;47.702;9.410;2022-12-29T09:14:59;8.00;99.90
5870;DHT22;2961;47.702;9.410;2022-12-29T09:17:25;8.10;99.90
5870;DHT22;2961;47.702;9.410;2022-12-29T09:20:09;8.10;99.90
5870;DHT22;2961;47.702;9.410;2022-12-29T09:22:36;8.10;99.90
5870;DHT22;2961;47.702;9.410;2022-12-29T09:25:03;8.10;99.90
5870;DHT22;2961;47.702;9.410;2022-12-29T09:27:30;8.20;99.90
5870;DHT22;2961;47.702;9.410;2022-12-29T09:29:58;8.30;99.90
5870;DHT22;2961;47.702;9.410;2022-12-29T09:32:25;8.30;99.90
5870;DHT22;2961;47.702;9.410;2022-12-29T09:34:52;8.40;99.90
5870;DHT22;2961;47.702;9.410;2022-12-29T09:37:18;8.50;99.90
5870;DHT22;2961;47.702;9.410;2022-12-29T09:39:46;8.60;99.90
5870;DHT22;2961;47.702;9.410;2022-12-29T09:42:19;8.90;99.90
5870;DHT22;2961;47.702;9.410;2022-12-29T09:44:54;8.90;99.90
5870;DHT22;2961;47.702;9.410;2022-12-29T09:47:24;9.00;99.90
5870;DHT22;2961;47.702;9.410;2022-12-29T09:49:54;9.10;99.90
5870;DHT22;2961;47.702;9.410;2022-12-29T09:52:23;9.20;99.90
5870;DHT22;2961;47.702;9.410;2022-12-29T09:54:57;9.20;99.90
5870;DHT22;2961;47.702;9.410;2022-12-29T09:57:27;9.40;99.90
5870;DHT22;2961;47.702;9.410;2022-12-29T09:59:59;9.60;99.90
5870;DHT22;2961;47.702;9.410;2022-12-29T10:02:36;9.90;99.90
5870;DHT22;2961;47.702;9.410;2022-12-29T10:05:04;10.10;99.90
5870;DHT22;2961;47.702;9.410;2022-12-29T10:07:44;10.30;99.90
5870;DHT22;2961;47.702;9.410;2022-12-29T10:10:20;10.40;99.90
5870;DHT22;2961;47.702;9.410;2022-12-29T10:12:59;10.70;99.90
5870;DHT22;2961;47.702;9.410;2022-12-29T10:15:40;10.80;99.90
5870;DHT22;2961;47.702;9.410;2022-12-29T10:18:23;10.80;99.90
5870;DHT22;2961;47.702;9.410;2022-12-29T10:20:54;10.80;99.90
5870;DHT22;2961;47.702;9.410;2022-12-29T10:23:27;10.80;99.90
5870;DHT22;2961;47.702;9.410;2022-12-29T10:25:56;10.80;99.90
5870;DHT22;2961;47.702;9.410;2022-12-29T10:28:38;10.80;99.90
5870;DHT22;2961;47.702;9.410;2022-12-29T10:31:18;10.90;99.90
5870;DHT22;2961;47.702;9.410;2022-12-29T10:33:50;11.00;99.90
5870;DHT22;2961;47.702;9.410;2022-12-29T10:36:24;11.10;99.90
5870;DHT22;2961;47.702;9.410;2022-12-29T10:39:02;11.20;99.90
5870;DHT22;2961;47.702;9.410;2022-12-29T10:41:36;11.20;99.90
5870;DHT22;2961;47.702;9.410;2022-12-29T10:44:04;11.20;99.90
5870;DHT22;2961;47.702;9.410;2022-12-29T10:46:34;11.10;99.90
5870;DHT22;2961;47.702;9.410;2022-12-29T10:49:04;11.10;99.90
5870;DHT22;2961;47.702;9.410;2022-12-29T10:51:35;11.10;99.40
5870;DHT22;2961;47.702;9.410;2022-12-29T10:54:06;11.00;99.90
5870;DHT22;2961;47.702;9.410;2022-12-29T10:56:42;11.00;99.90
5870;DHT22;2961;47.702;9.410;2022-12-29T10:59:16;11.00;99.90
5870;DHT22;2961;47.702;9.410;2022-12-29T11:01:52;11.10;98.80
5870;DHT22;2961;47.702;9.410;2022-12-29T11:04:37;11.10;99.90
5870;DHT22;2961;47.702;9.410;2022-12-29T11:07:10;11.20;99.90
5870;DHT22;2961;47.702;9.410;2022-12-29T11:09:39;11.30;99.90
5870;DHT22;2961;47.702;9.410;2022-12-29T11:12:19;11.40;99.90
5870;DHT22;2961;47.702;9.410;2022-12-29T11:14:46;11.50;99.90
5870;DHT22;2961;47.702;9.410;2022-12-29T11:17:15;11.60;99.90
5870;DHT22;2961;47.702;9.410;2022-12-29T11:19:45;11.70;99.90
5870;DHT22;2961;47.702;9.410;2022-12-29T11:22:14;11.80;99.90
5870;DHT22;2961;47.702;9.410;2022-12-29T11:24:48;11.80;99.90
5870;DHT22;2961;47.702;9.410;2022-12-29T11:27:16;11.90;99.90
5870;DHT22;2961;47.702;9.410;2022-12-29T11:29:45;12.00;99.50
5870;DHT22;2961;47.702;9.410;2022-12-29T11:32:17;12.00;99.90
5870;DHT22;2961;47.702;9.410;2022-12-29T11:34:46;12.00;99.90
5870;DHT22;2961;47.702;9.410;2022-12-29T11:37:15;12.10;99.90
5870;DHT22;2961;47.702;9.410;2022-12-29T11:39:48;12.10;99.90
5870;DHT22;2961;47.702;9.410;2022-12-29T11:42:18;12.20;99.60
5870;DHT22;2961;47.702;9.410;2022-12-29T11:44:48;12.30;99.10
5870;DHT22;2961;47.702;9.410;2022-12-29T11:47:27;12.30;99.90
5870;DHT22;2961;47.702;9.410;2022-12-29T11:49:58;12.30;99.70
5870;DHT22;2961;47.702;9.410;2022-12-29T11:52:29;12.30;98.60
5870;DHT22;2961;47.702;9.410;2022-12-29T11:54:59;12.20;98.70
5870;DHT22;2961;47.702;9.410;2022-12-29T11:57:28;12.20;97.40
5870;DHT22;2961;47.702;9.410;2022-12-29T11:59:55;12.20;99.90
5870;DHT22;2961;47.702;9.410;2022-12-29T12:02:35;12.30;99.00
5870;DHT22;2961;47.702;9.410;2022-12-29T12:05:16;12.30;98.30
5870;DHT22;2961;47.702;9.410;2022-12-29T12:07:46;12.40;97.80
5870;DHT22;2961;47.702;9.410;2022-12-29T12:10:20;12.50;97.50
5870;DHT22;2961;47.702;9.410;2022-12-29T12:12:52;12.50;99.80
5870;DHT22;2961;47.702;9.410;2022-12-29T12:15:24;12.50;98.00
5870;DHT22;2961;47.702;9.410;2022-12-29T12:17:57;12.50;99.40
5870;DHT22;2961;47.702;9.410;2022-12-29T12:20:36;12.40;97.90
5870;DHT22;2961;47.702;9.410;2022-12-29T12:23:15;12.30;99.30
5870;DHT22;2961;47.702;9.410;2022-12-29T12:25:54;12.20;99.90
5870;DHT22;2961;47.702;9.410;2022-12-29T12:28:28;12.10;99.90
5870;DHT22;2961;47.702;9.410;2022-12-29T12:31:00;12.00;99.90
5870;DHT22;2961;47.702;9.410;2022-12-29T12:33:33;11.80;99.90
5870;DHT22;2961;47.702;9.410;2022-12-29T12:36:16;11.70;99.90
5870;DHT22;2961;47.702;9.410;2022-12-29T12:38:54;11.60;99.90
5870;DHT22;2961;47.702;9.410;2022-12-29T12:41:28;11.60;99.90
5870;DHT22;2961;47.702;9.410;2022-12-29T12:44:01;11.50;99.90
5870;DHT22;2961;47.702;9.410;2022-12-29T12:46:59;11.40;99.90
5870;DHT22;2961;47.702;9.410;2022-12-29T12:52:31;11.40;99.90
5870;DHT22;2961;47.702;9.410;2022-12-29T12:55:18;11.30;99.90
5870;DHT22;2961;47.702;9.410;2022-12-29T12:57:52;11.20;99.90
5870;DHT22;2961;47.702;9.410;2022-12-29T13:00:24;11.10;99.90
5870;DHT22;2961;47.702;9.410;2022-12-29T13:03:03;11.10;99.90
5870;DHT22;2961;47.702;9.410;2022-12-29T13:06:00;11.10;99.90
5870;DHT22;2961;47.702;9.410;2022-12-29T13:08:53;11.10;99.90
5870;DHT22;2961;47.702;9.410;2022-12-29T13:11:31;11.10;99.90
5870;DHT22;2961;47.702;9.410;2022-12-29T13:14:11;11.10;99.90
5870;DHT22;2961;47.702;9.410;2022-12-29T13:16:46;11.00;99.90
5870;DHT22;2961;47.702;9.410;2022-12-29T13:19:19;10.90;99.90
5870;DHT22;2961;47.702;9.410;2022-12-29T13:21:58;10.90;99.90
5870;DHT22;2961;47.702;9.410;2022-12-29T13:24:34;10.80;99.90
5870;DHT22;2961;47.702;9.410;2022-12-29T13:27:08;10.80;99.90
5870;DHT22;2961;47.702;9.410;2022-12-29T13:29:42;10.80;99.90
5870;DHT22;2961;47.702;9.410;2022-12-29T13:32:35;10.70;99.90
5870;DHT22;2961;47.702;9.410;2022-12-29T13:35:38;10.70;99.90
5870;DHT22;2961;47.702;9.410;2022-12-29T13:38:12;10.60;99.90
5870;DHT22;2961;47.702;9.410;2022-12-29T13:40:45;10.60;99.90
5870;DHT22;2961;47.702;9.410;2022-12-29T13:43:14;10.60;99.90
5870;DHT22;2961;47.702;9.410;2022-12-29T13:45:42;10.70;99.90
5870;DHT22;2961;47.702;9.410;2022-12-29T13:48:15;10.70;99.90
5870;DHT22;2961;47.702;9.410;2022-12-29T13:50:47;10.70;99.90
5870;DHT22;2961;47.702;9.410;2022-12-29T13:53:20;10.60;99.90
5870;DHT22;2961;47.702;9.410;2022-12-29T13:55:55;10.60;99.90
5870;DHT22;2961;47.702;9.410;2022-12-29T13:58:29;10.50;99.90
5870;DHT22;2961;47.702;9.410;2022-12-29T14:01:00;10.50;99.90
5870;DHT22;2961;47.702;9.410;2022-12-29T14:03:51;10.40;99.90
5870;DHT22;2961;47.702;9.410;2022-12-29T14:06:23;10.40;99.90
5870;DHT22;2961;47.702;9.410;2022-12-29T14:08:53;10.50;99.90
5870;DHT22;2961;47.702;9.410;2022-12-29T14:11:23;10.60;99.90
5870;DHT22;2961;47.702;9.410;2022-12-29T14:13:51;10.60;99.90
5870;DHT22;2961;47.702;9.410;2022-12-29T14:16:30;10.50;99.90
5870;DHT22;2961;47.702;9.410;2022-12-29T14:19:04;10.40;99.90
5870;DHT22;2961;47.702;9.410;2022-12-29T14:21:32;10.20;99.90
5870;DHT22;2961;47.702;9.410;2022-12-29T14:27:52;10.10;99.90
5870;DHT22;2961;47.702;9.410;2022-12-29T14:30:48;10.00;99.90
5870;DHT22;2961;47.702;9.410;2022-12-29T14:33:16;10.00;99.90
5870;DHT22;2961;47.702;9.410;2022-12-29T14:35:45;10.00;99.90
5870;DHT22;2961;47.702;9.410;2022-12-29T14:38:17;9.90;99.90
5870;DHT22;2961;47.702;9.410;2022-12-29T14:40:45;10.00;99.90
5870;DHT22;2961;47.702;9.410;2022-12-29T14:43:20;10.00;99.90
5870;DHT22;2961;47.702;9.410;2022-12-29T14:45:54;10.00;99.90
5870;DHT22;2961;47.702;9.410;2022-12-29T14:48:35;9.90;99.90
5870;DHT22;2961;47.702;9.410;2022-12-29T14:51:17;9.90;99.90
5870;DHT22;2961;47.702;9.410;2022-12-29T14:53:47;9.80;99.90
5870;DHT22;2961;47.702;9.410;2022-12-29T14:56:16;9.70;99.90
5870;DHT22;2961;47.702;9.410;2022-12-29T14:58:54;9.80;99.90
5870;DHT22;2961;47.702;9.410;2022-12-29T15:01:27;9.80;99.90
5870;DHT22;2961;47.702;9.410;2022-12-29T15:03:57;9.80;99.90
5870;DHT22;2961;47.702;9.410;2022-12-29T15:06:27;9.80;99.90
5870;DHT22;2961;47.702;9.410;2022-12-29T15:09:00;9.80;99.90
5870;DHT22;2961;47.702;9.410;2022-12-29T15:11:44;9.70;99.90
5870;DHT22;2961;47.702;9.410;2022-12-29T15:14:32;9.70;99.90
5870;DHT22;2961;47.702;9.410;2022-12-29T15:17:00;9.70;99.90
5870;DHT22;2961;47.702;9.410;2022-12-29T15:19:27;9.70;99.90
5870;DHT22;2961;47.702;9.410;2022-12-29T15:21:55;9.70;99.90
5870;DHT22;2961;47.702;9.410;2022-12-29T15:24:23;9.60;99.90
5870;DHT22;2961;47.702;9.410;2022-12-29T15:26:52;9.60;99.90
5870;DHT22;2961;47.702;9.410;2022-12-29T15:29:34;9.50;99.90
5870;DHT22;2961;47.702;9.410;2022-12-29T15:32:16;9.50;99.90
5870;DHT22;2961;47.702;9.410;2022-12-29T15:34:43;9.50;99.90
5870;DHT22;2961;47.702;9.410;2022-12-29T15:37:20;9.40;99.90
5870;DHT22;2961;47.702;9.410;2022-12-29T15:39:48;9.40;99.90
5870;DHT22;2961;47.702;9.410;2022-12-29T15:42:31;9.30;99.90
5870;DHT22;2961;47.702;9.410;2022-12-29T15:45:05;9.40;99.90
5870;DHT22;2961;47.702;9.410;2022-12-29T15:47:33;9.40;99.90
5870;DHT22;2961;47.702;9.410;2022-12-29T15:50:03;9.40;99.90
5870;DHT22;2961;47.702;9.410;2022-12-29T15:52:32;9.30;99.90
5870;DHT22;2961;47.702;9.410;2022-12-29T15:55:00;9.30;99.90
5870;DHT22;2961;47.702;9.410;2022-12-29T15:57:30;9.20;99.90
5870;DHT22;2961;47.702;9.410;2022-12-29T15:59:58;9.20;99.90
5870;DHT22;2961;47.702;9.410;2022-12-29T16:02:28;9.10;99.90
5870;DHT22;2961;47.702;9.410;2022-12-29T16:04:55;9.20;99.90
5870;DHT22;2961;47.702;9.410;2022-12-29T16:07:25;9.30;99.90
5870;DHT22;2961;47.702;9.410;2022-12-29T16:09:54;9.40;99.90
5870;DHT22;2961;47.702;9.410;2022-12-29T16:12:24;9.30;99.90
5870;DHT22;2961;47.702;9.410;2022-12-29T16:14:54;9.30;99.90
5870;DHT22;2961;47.702;9.410;2022-12-29T16:17:23;9.40;99.90
5870;DHT22;2961;47.702;9.410;2022-12-29T16:19:56;9.40;99.90
5870;DHT22;2961;47.702;9.410;2022-12-29T16:22:27;9.40;99.90
5870;DHT22;2961;47.702;9.410;2022-12-29T16:24:57;9.50;99.90
5870;DHT22;2961;47.702;9.410;2022-12-29T16:27:31;9.50;99.90
5870;DHT22;2961;47.702;9.410;2022-12-29T16:30:03;9.50;99.90
5870;DHT22;2961;47.702;9.410;2022-12-29T16:32:31;9.60;99.90
5870;DHT22;2961;47.702;9.410;2022-12-29T16:35:13;9.60;99.90
5870;DHT22;2961;47.702;9.410;2022-12-29T16:37:42;9.70;99.90
5870;DHT22;2961;47.702;9.410;2022-12-29T16:40:27;9.60;99.90
5870;DHT22;2961;47.702;9.410;2022-12-29T16:42:57;9.60;99.90
5870;DHT22;2961;47.702;9.410;2022-12-29T16:46:16;9.50;99.90
5870;DHT22;2961;47.702;9.410;2022-12-29T16:48:51;9.50;99.90
5870;DHT22;2961;47.702;9.410;2022-12-29T16:51:23;9.50;99.90
5870;DHT22;2961;47.702;9.410;2022-12-29T16:53:55;9.40;99.90